createdAt,value
2023-02-25T08:57:43.982Z,95646.97
2023-02-25T08:58:45.541Z,95651.25
2023-02-25T09:12:10.459Z,95646.66
2023-02-25T09:13:12.011Z,95643.25
2023-02-25T09:14:14.455Z,95631.28
2023-02-25T09:15:15.949Z,95643.03
2023-02-25T09:16:17.676Z,95643.59
2023-02-25T09:17:19.361Z,95636.25
2023-02-25T09:18:20.897Z,95644.88
2023-02-25T09:19:22.353Z,95637.13
2023-02-25T09:20:24.217Z,95640.25
2023-02-25T09:21:25.861Z,95644.16
2023-02-25T09:22:31.418Z,95638.66
2023-02-25T09:23:33.116Z,95633.63
2023-02-25T09:24:34.791Z,95642.75
2023-02-25T09:25:38.408Z,95641.50
2023-02-25T09:26:39.830Z,95635.47
2023-02-25T09:27:41.306Z,95641.75
2023-02-25T09:28:42.883Z,95646.19
2023-02-25T09:29:44.307Z,95637.63
2023-02-25T09:30:46.986Z,95649.34
2023-02-25T09:31:48.591Z,95641.75
2023-02-25T09:32:50.210Z,95643.22
2023-02-25T09:33:52.242Z,95627.22
2023-02-25T09:34:53.700Z,95643.44
2023-02-25T09:35:55.066Z,95637.00
2023-02-25T09:36:57.283Z,95642.75
2023-02-25T09:37:58.708Z,95638.41
2023-02-25T09:39:00.661Z,95641.25
2023-02-25T09:47:31.326Z,95632.69
2023-02-25T09:48:38.173Z,95627.34
2023-02-25T09:49:48.310Z,95611.97
2023-02-25T09:50:53.205Z,95625.91
2023-02-25T09:52:05.831Z,95620.56
2023-02-25T09:53:15.228Z,95629.19
2023-02-25T09:54:34.842Z,95627.72
2023-02-25T09:55:39.635Z,95612.59
2023-02-25T09:56:41.308Z,95621.34
2023-02-25T09:57:49.322Z,95608.22
2023-02-25T09:58:56.248Z,95625.34
2023-02-25T09:59:57.677Z,95621.53
2023-02-25T10:01:18.194Z,95621.78
2023-02-25T10:02:32.710Z,95618.75
2023-02-25T10:03:53.466Z,95631.19
2023-02-25T10:05:14.874Z,95628.66
2023-02-25T10:06:20.505Z,95628.91
2023-02-25T10:07:28.226Z,95626.38
2023-02-25T10:08:44.157Z,95612.38
2023-02-25T10:09:54.002Z,95628.38
2023-02-25T10:11:13.375Z,95623.72
2023-02-25T10:12:35.270Z,95626.81
2023-02-25T10:13:42.422Z,95627.16
2023-02-25T10:14:53.028Z,95625.56
2023-02-25T10:16:16.246Z,95607.19
2023-02-25T10:17:20.607Z,95633.78
2023-02-25T10:18:46.151Z,95632.97
2023-02-25T10:20:09.186Z,95636.03
2023-02-25T10:21:37.945Z,95642.66
2023-02-25T10:23:12.799Z,95640.56
2023-02-25T10:24:26.362Z,95641.44
2023-02-25T13:44:28.491Z,95575.91
2023-02-25T13:45:54.842Z,95578.69
2023-02-25T13:56:23.941Z,95575.75
2023-02-25T13:57:42.999Z,95578.34
2023-02-25T13:59:13.591Z,95578.69
2023-02-25T14:00:53.691Z,95576.88
2023-02-25T14:02:16.756Z,95578.06
2023-02-25T14:03:31.643Z,95569.59
2023-02-25T14:05:10.243Z,95570.59
2023-02-25T14:06:37.843Z,95569.47
2023-02-25T14:07:55.852Z,95575.44
2023-02-25T14:09:13.937Z,95578.38
2023-02-25T14:10:18.537Z,95569.66
2023-02-25T14:11:44.225Z,95570.81
2023-02-25T14:13:11.162Z,95578.22
2023-02-25T14:14:36.251Z,95572.63
2023-02-25T14:15:49.783Z,95572.25
2023-02-25T14:17:47.029Z,95577.13
2023-02-25T14:34:26.508Z,95552.53
2023-02-25T14:35:43.948Z,95561.25
2023-02-25T14:37:11.254Z,95572.31
2023-02-25T14:38:21.173Z,95579.88
2023-02-25T14:39:50.174Z,95573.56
2023-02-25T14:41:37.887Z,95574.47
2023-02-25T14:42:56.174Z,95575.13
2023-02-25T14:44:03.659Z,95573.44
2023-02-25T14:45:13.075Z,95574.59
2023-02-25T14:46:25.848Z,95574.34
2023-02-25T14:47:35.869Z,95573.97
2023-02-25T14:48:59.127Z,95576.00
2023-02-25T14:50:18.491Z,95556.22
2023-02-25T14:52:02.194Z,95579.97
2023-02-25T14:56:04.874Z,95577.91
2023-02-25T14:57:22.617Z,95577.50
2023-02-25T14:58:42.106Z,95577.63
2023-02-25T15:00:13.974Z,95564.22
2023-02-25T15:01:26.996Z,95574.84
2023-02-25T15:03:02.301Z,95575.56
2023-02-25T15:44:33.882Z,95589.75
2023-02-25T15:45:37.606Z,95605.81
2023-02-25T15:46:43.109Z,95608.00
